Crawler — 3EVK8 — position and weather

sailwx.info

Track history (hours):
 
Tides and Currents Weather Stations Pressure Air Temp Water Temp Dewpoint Dewpoint Depression Visibility Wind Speed Wind Dir Waves Ship Positions

Crawler

Last reported at 2015-Aug-27 22:33 UTC. Time now 2015-Aug-29 12:38 UTC.
Position N 37°41' E 016°15'.

Length 144 m; draft 7.5 m.

MMSI: 351130000.

Date/timePositionNaut miles runAvg speedWind from/ knotsBaromVisibWave heightAir tempDewpointWater temp
2015-Aug-27 22:33N 37°41' E 016°15'5 5.4
2015-Aug-27 21:34N 37°37' E 016°10'7 5.4
2015-Aug-27 20:17N 37°31' E 016°05'73 5.2
2015-Aug-27 06:18N 36°35' E 015°07'5 5.1
2015-Aug-27 05:25N 36°34' E 015°01'5 5.4
2015-Aug-27 04:31N 36°35' E 014°55'5 5.5
2015-Aug-27 03:33N 36°35' E 014°49'5 5.4
2015-Aug-27 02:33N 36°37' E 014°42'6 5.5
2015-Aug-27 01:33N 36°39' E 014°36'5 5.4
2015-Aug-27 00:33N 36°41' E 014°30'5 5.4
2015-Aug-26 23:33N 36°44' E 014°24'6 5.5
2015-Aug-26 22:33N 36°46' E 014°18'5 5.5
2015-Aug-26 21:33N 36°49' E 014°12'5 5.3
2015-Aug-26 20:33N 36°51' E 014°06'5 5.4
2015-Aug-26 19:33N 36°53' E 013°59'5 5.5
2015-Aug-26 18:33N 36°56' E 013°53'5 5.5
2015-Aug-26 17:33N 36°58' E 013°47'6 5.6
2015-Aug-26 16:33N 37°01' E 013°41'6 5.6
2015-Aug-26 15:33N 37°04' E 013°35'6 5.6
2015-Aug-26 14:33N 37°06' E 013°29'6 5.7
2015-Aug-26 13:33N 37°09' E 013°22'6 5.9
2015-Aug-26 12:33N 37°12' E 013°16'6 5.9
2015-Aug-26 11:33N 37°15' E 013°09'13 5.8
2015-Aug-26 09:17N 37°20' E 012°54'4 5.7
2015-Aug-26 08:33N 37°21' E 012°49'6 5.7
2015-Aug-26 07:33N 37°24' E 012°43'6 5.7
2015-Aug-26 06:33N 37°26' E 012°37'5 5.4
2015-Aug-26 05:33N 37°29' E 012°30'5 5.5
2015-Aug-26 04:33N 37°31' E 012°24'6 5.4
2015-Aug-26 03:26N 37°32' E 012°17'5 5.4
2015-Aug-26 02:32N 37°33' E 012°11'5 5.4
2015-Aug-26 01:32N 37°34' E 012°04'6 5.4
2015-Aug-26 00:22N 37°35' E 011°56'4 5.4
2015-Aug-25 23:33N 37°35' E 011°50'5 5.4
2015-Aug-25 22:33N 37°34' E 011°44'7 5.3
2015-Aug-25 21:12N 37°33' E 011°35'5 5.7
2015-Aug-25 20:22N 37°33' E 011°29'5 5.8
2015-Aug-25 19:33N 37°34' E 011°23'12 6.0
2015-Aug-25 17:33N 37°34' E 011°08'6 6.1
2015-Aug-25 16:33N 37°34' E 010°60'6 6.1
2015-Aug-25 15:32N 37°33' E 010°52'6 6.0
2015-Aug-25 14:32N 37°33' E 010°45'67 6.0
2015-Aug-25 03:25N 37°37' E 009°20'5 6.2
2015-Aug-25 02:33N 37°37' E 009°13'130 5.4
2015-Aug-24 02:24N 37°33' E 006°28'4 5.0
2015-Aug-24 01:33N 37°33' E 006°23'20 4.9
2015-Aug-23 21:33N 37°29' E 005°59'49 5.7
2015-Aug-23 13:05N 37°18' E 004°59'10 6.0
2015-Aug-23 11:28N 37°17' E 004°47'6 6.1
2015-Aug-23 10:33N 37°16' E 004°40'6 5.8
2015-Aug-23 09:30N 37°14' E 004°33'11 5.8
2015-Aug-23 07:32N 37°13' E 004°19'6 6.1
2015-Aug-23 06:33N 37°12' E 004°11'7 5.9
2015-Aug-23 05:18N 37°11' E 004°02'16 5.7
2015-Aug-23 02:29N 37°08' E 003°42'36 6.1
2015-Aug-22 20:34N 37°04' E 002°57'5 5.3
2015-Aug-22 19:34N 37°03' E 002°51'6 5.4
2015-Aug-22 18:28N 37°02' E 002°43'5 5.4
2015-Aug-22 17:33N 37°02' E 002°37'6 5.6
2015-Aug-22 16:32N 37°01' E 002°30'5 5.5
2015-Aug-22 15:33N 36°59' E 002°24'6 5.6
2015-Aug-22 14:24N 36°59' E 002°16'5 5.4
2015-Aug-22 13:25N 36°58' E 002°09'5 5.5
2015-Aug-22 12:25N 36°57' E 002°02'4 5.0
2015-Aug-22 11:33N 36°57' E 001°57'5 5.0
2015-Aug-22 10:33N 36°56' E 001°51'5 4.8
2015-Aug-22 09:33N 36°55' E 001°45'5 4.6
2015-Aug-22 08:27N 36°54' E 001°38'14 4.7
2015-Aug-22 05:32N 36°52' E 001°21'5 5.1
2015-Aug-22 04:33N 36°51' E 001°15'5 5.3
2015-Aug-22 03:33N 36°50' E 001°09'6 5.3
2015-Aug-22 02:21N 36°49' E 001°01'4 5.4
2015-Aug-22 01:33N 36°48' E 000°56'6 5.6
2015-Aug-22 00:32N 36°47' E 000°49'5 5.5
2015-Aug-21 23:33N 36°46' E 000°42'6 5.6
2015-Aug-21 22:33N 36°45' E 000°35'5 5.3
2015-Aug-21 21:32N 36°44' E 000°28'5 4.9
2015-Aug-21 20:33N 36°43' E 000°23'5 4.7
2015-Aug-21 19:33N 36°42' E 000°17'5 4.7
2015-Aug-21 18:33N 36°41' E 000°11'5 4.7
2015-Aug-21 17:33N 36°40' E 000°05'5 4.6
2015-Aug-21 16:32N 36°40' W 000°01'4 4.4
2015-Aug-21 15:33N 36°39' W 000°06'4 4.3
2015-Aug-21 14:33N 36°38' W 000°11'4 4.4
2015-Aug-21 13:33N 36°38' W 000°17'4 4.4
2015-Aug-21 12:33N 36°37' W 000°22'4 4.3
2015-Aug-21 11:33N 36°36' W 000°27'4 4.3
2015-Aug-21 10:33N 36°35' W 000°33'4 4.5
2015-Aug-21 09:32N 36°35' W 000°38'5 4.6
2015-Aug-21 08:33N 36°34' W 000°44'4 4.2
2015-Aug-21 07:33N 36°33' W 000°49'4 4.3
2015-Aug-21 06:33N 36°32' W 000°54'9 4.7
2015-Aug-21 04:34N 36°30' W 001°05'5 5.0
2015-Aug-21 03:33N 36°30' W 001°12'5 5.0
2015-Aug-21 02:32N 36°29' W 001°18'32 4.5
2015-Aug-20 19:33N 36°24' W 001°57'9 4.4
2015-Aug-20 17:34N 36°23' W 002°08'5 4.6
2015-Aug-20 16:27N 36°22' W 002°14'4 4.7
2015-Aug-20 15:33N 36°22' W 002°19'5 4.8
2015-Aug-20 14:33N 36°21' W 002°25'5 4.8
2015-Aug-20 13:32N 36°21' W 002°31'5 4.7
2015-Aug-20 12:33N 36°20' W 002°37'5 5.0
2015-Aug-20 11:33N 36°20' W 002°43'149 6.2
2015-Aug-19 11:34N 35°55' W 005°44'  
Track history (hours):
 
Tides and Currents Weather Stations Pressure Air Temp Water Temp Dewpoint Dewpoint Depression Visibility Wind Speed Wind Dir Waves Ship Positions

Crawler

Last reported at 2015-Aug-27 22:33 UTC. Time now 2015-Aug-29 12:38 UTC.
Position N 37°41' E 016°15'.

Length 144 m; draft 7.5 m.

MMSI: 351130000.

Date/timePositionNaut miles runAvg speedWind from/ knotsBaromVisibWave heightAir tempDewpointWater temp
2015-Aug-27 22:33N 37°41' E 016°15'5 5.4
2015-Aug-27 21:34N 37°37' E 016°10'7 5.4
2015-Aug-27 20:17N 37°31' E 016°05'73 5.2
2015-Aug-27 06:18N 36°35' E 015°07'5 5.1
2015-Aug-27 05:25N 36°34' E 015°01'5 5.4
2015-Aug-27 04:31N 36°35' E 014°55'5 5.5
2015-Aug-27 03:33N 36°35' E 014°49'5 5.4
2015-Aug-27 02:33N 36°37' E 014°42'6 5.5
2015-Aug-27 01:33N 36°39' E 014°36'5 5.4
2015-Aug-27 00:33N 36°41' E 014°30'5 5.4
2015-Aug-26 23:33N 36°44' E 014°24'6 5.5
2015-Aug-26 22:33N 36°46' E 014°18'5 5.5
2015-Aug-26 21:33N 36°49' E 014°12'5 5.3
2015-Aug-26 20:33N 36°51' E 014°06'5 5.4
2015-Aug-26 19:33N 36°53' E 013°59'5 5.5
2015-Aug-26 18:33N 36°56' E 013°53'5 5.5
2015-Aug-26 17:33N 36°58' E 013°47'6 5.6
2015-Aug-26 16:33N 37°01' E 013°41'6 5.6
2015-Aug-26 15:33N 37°04' E 013°35'6 5.6
2015-Aug-26 14:33N 37°06' E 013°29'6 5.7
2015-Aug-26 13:33N 37°09' E 013°22'6 5.9
2015-Aug-26 12:33N 37°12' E 013°16'6 5.9
2015-Aug-26 11:33N 37°15' E 013°09'13 5.8
2015-Aug-26 09:17N 37°20' E 012°54'4 5.7
2015-Aug-26 08:33N 37°21' E 012°49'6 5.7
2015-Aug-26 07:33N 37°24' E 012°43'6 5.7
2015-Aug-26 06:33N 37°26' E 012°37'5 5.4
2015-Aug-26 05:33N 37°29' E 012°30'5 5.5
2015-Aug-26 04:33N 37°31' E 012°24'6 5.4
2015-Aug-26 03:26N 37°32' E 012°17'5 5.4
2015-Aug-26 02:32N 37°33' E 012°11'5 5.4
2015-Aug-26 01:32N 37°34' E 012°04'6 5.4
2015-Aug-26 00:22N 37°35' E 011°56'4 5.4
2015-Aug-25 23:33N 37°35' E 011°50'5 5.4
2015-Aug-25 22:33N 37°34' E 011°44'7 5.3
2015-Aug-25 21:12N 37°33' E 011°35'5 5.7
2015-Aug-25 20:22N 37°33' E 011°29'5 5.8
2015-Aug-25 19:33N 37°34' E 011°23'12 6.0
2015-Aug-25 17:33N 37°34' E 011°08'6 6.1
2015-Aug-25 16:33N 37°34' E 010°60'6 6.1
2015-Aug-25 15:32N 37°33' E 010°52'6 6.0
2015-Aug-25 14:32N 37°33' E 010°45'67 6.0
2015-Aug-25 03:25N 37°37' E 009°20'5 6.2
2015-Aug-25 02:33N 37°37' E 009°13'130 5.4
2015-Aug-24 02:24N 37°33' E 006°28'4 5.0
2015-Aug-24 01:33N 37°33' E 006°23'20 4.9
2015-Aug-23 21:33N 37°29' E 005°59'49 5.7
2015-Aug-23 13:05N 37°18' E 004°59'10 6.0
2015-Aug-23 11:28N 37°17' E 004°47'6 6.1
2015-Aug-23 10:33N 37°16' E 004°40'6 5.8
2015-Aug-23 09:30N 37°14' E 004°33'11 5.8
2015-Aug-23 07:32N 37°13' E 004°19'6 6.1
2015-Aug-23 06:33N 37°12' E 004°11'7 5.9
2015-Aug-23 05:18N 37°11' E 004°02'16 5.7
2015-Aug-23 02:29N 37°08' E 003°42'36 6.1
2015-Aug-22 20:34N 37°04' E 002°57'5 5.3
2015-Aug-22 19:34N 37°03' E 002°51'6 5.4
2015-Aug-22 18:28N 37°02' E 002°43'5 5.4
2015-Aug-22 17:33N 37°02' E 002°37'6 5.6
2015-Aug-22 16:32N 37°01' E 002°30'5 5.5
2015-Aug-22 15:33N 36°59' E 002°24'6 5.6
2015-Aug-22 14:24N 36°59' E 002°16'5 5.4
2015-Aug-22 13:25N 36°58' E 002°09'5 5.5
2015-Aug-22 12:25N 36°57' E 002°02'4 5.0
2015-Aug-22 11:33N 36°57' E 001°57'5 5.0
2015-Aug-22 10:33N 36°56' E 001°51'5 4.8
2015-Aug-22 09:33N 36°55' E 001°45'5 4.6
2015-Aug-22 08:27N 36°54' E 001°38'14 4.7
2015-Aug-22 05:32N 36°52' E 001°21'5 5.1
2015-Aug-22 04:33N 36°51' E 001°15'5 5.3
2015-Aug-22 03:33N 36°50' E 001°09'6 5.3
2015-Aug-22 02:21N 36°49' E 001°01'4 5.4
2015-Aug-22 01:33N 36°48' E 000°56'6 5.6
2015-Aug-22 00:32N 36°47' E 000°49'5 5.5
2015-Aug-21 23:33N 36°46' E 000°42'6 5.6
2015-Aug-21 22:33N 36°45' E 000°35'5 5.3
2015-Aug-21 21:32N 36°44' E 000°28'5 4.9
2015-Aug-21 20:33N 36°43' E 000°23'5 4.7
2015-Aug-21 19:33N 36°42' E 000°17'5 4.7
2015-Aug-21 18:33N 36°41' E 000°11'5 4.7
2015-Aug-21 17:33N 36°40' E 000°05'5 4.6
2015-Aug-21 16:32N 36°40' W 000°01'4 4.4
2015-Aug-21 15:33N 36°39' W 000°06'4 4.3
2015-Aug-21 14:33N 36°38' W 000°11'4 4.4
2015-Aug-21 13:33N 36°38' W 000°17'4 4.4
2015-Aug-21 12:33N 36°37' W 000°22'4 4.3
2015-Aug-21 11:33N 36°36' W 000°27'4 4.3
2015-Aug-21 10:33N 36°35' W 000°33'4 4.5
2015-Aug-21 09:32N 36°35' W 000°38'5 4.6
2015-Aug-21 08:33N 36°34' W 000°44'4 4.2
2015-Aug-21 07:33N 36°33' W 000°49'4 4.3
2015-Aug-21 06:33N 36°32' W 000°54'9 4.7
2015-Aug-21 04:34N 36°30' W 001°05'5 5.0
2015-Aug-21 03:33N 36°30' W 001°12'5 5.0
2015-Aug-21 02:32N 36°29' W 001°18'32 4.5
2015-Aug-20 19:33N 36°24' W 001°57'9 4.4
2015-Aug-20 17:34N 36°23' W 002°08'5 4.6
2015-Aug-20 16:27N 36°22' W 002°14'4 4.7
2015-Aug-20 15:33N 36°22' W 002°19'5 4.8
2015-Aug-20 14:33N 36°21' W 002°25'5 4.8
2015-Aug-20 13:32N 36°21' W 002°31'5 4.7
2015-Aug-20 12:33N 36°20' W 002°37'5 5.0
2015-Aug-20 11:33N 36°20' W 002°43'149 6.2
2015-Aug-19 11:34N 35°55' W 005°44'  

Dump ship's entire track history